Time;durP1;ratioP1;P1;durP2;ratioP2;P2;SDS_P1;SDS_P2;PMS_P1;PMS_P2;Temp;Humidity;BMP_temperature;BMP_pressure;BME280_temperature;BME280_humidity;BME280_pressure;Samples;Min_cycle;Max_cycle;Signal;HPM_P1;HPM_P2
2023/04/21 00:00:07;;;;;;;25.17;14.25;;;8.80;99.90;;;;;;5055551;28;20098;-87
2023/04/21 00:02:38;;;;;;;26.48;13.98;;;8.90;99.90;;;;;;5039777;28;20052;-86
2023/04/21 00:05:09;;;;;;;26.63;13.48;;;8.90;99.90;;;;;;5083389;28;20097;-86
2023/04/21 00:07:36;;;;;;;23.98;14.57;;;8.80;99.90;;;;;;5061055;28;20052;-87
2023/04/21 00:10:05;;;;;;;30.90;14.15;;;9.10;99.90;;;;;;5044392;28;20691;-86
2023/04/21 00:12:35;;;;;;;22.00;13.38;;;8.80;99.90;;;;;;5061703;28;20497;-86
2023/04/21 00:15:02;;;;;;;25.48;13.88;;;8.90;99.90;;;;;;5041528;28;20094;-87
2023/04/21 00:17:28;;;;;;;23.10;14.05;;;9.10;99.90;;;;;;5069762;28;20048;-88
2023/04/21 00:19:57;;;;;;;24.10;13.38;;;9.00;99.90;;;;;;5035477;28;20049;-88
2023/04/21 00:22:23;;;;;;;20.17;12.48;;;9.20;99.90;;;;;;5046826;28;20131;-88
2023/04/21 00:24:49;;;;;;;24.63;12.93;;;8.80;99.90;;;;;;5065595;28;20599;-86
2023/04/21 00:27:15;;;;;;;23.80;12.90;;;9.30;99.90;;;;;;5065554;28;20171;-87
2023/04/21 00:29:41;;;;;;;22.45;13.30;;;8.70;99.90;;;;;;5068836;28;20048;-87
2023/04/21 00:32:08;;;;;;;21.83;13.73;;;8.10;99.90;;;;;;5056440;28;20452;-87
2023/04/21 00:34:40;;;;;;;22.00;12.70;;;8.70;99.90;;;;;;5054590;28;20047;-87
2023/04/21 00:37:05;;;;;;;21.85;12.32;;;9.00;99.90;;;;;;5067325;28;20056;-87
2023/04/21 00:39:31;;;;;;;30.80;12.93;;;8.60;99.90;;;;;;5054959;28;20048;-87
2023/04/21 00:41:57;;;;;;;26.60;12.15;;;8.70;99.90;;;;;;5070329;28;20490;-87
2023/04/21 00:44:23;;;;;;;32.47;12.85;;;8.30;99.90;;;;;;5053649;28;20050;-86
2023/04/21 00:46:51;;;;;;;20.40;11.85;;;8.40;99.90;;;;;;5059438;28;20565;-87
2023/04/21 00:49:17;;;;;;;21.33;11.77;;;8.30;99.90;;;;;;5048425;28;20086;-87
2023/04/21 00:51:43;;;;;;;19.27;10.70;;;8.20;99.90;;;;;;5055786;28;20044;-88
2023/04/21 00:54:12;;;;;;;25.08;13.55;;;8.30;99.90;;;;;;5057761;28;20050;-88
2023/04/21 00:56:43;;;;;;;21.30;11.15;;;8.30;99.90;;;;;;5057803;28;20435;-87
2023/04/21 00:59:12;;;;;;;20.23;11.10;;;8.10;99.90;;;;;;5056993;28;20477;-88
2023/04/21 01:01:38;;;;;;;19.25;11.13;;;8.20;99.90;;;;;;5058131;28;20130;-87
2023/04/21 01:04:04;;;;;;;20.92;11.73;;;8.30;99.90;;;;;;5051455;28;20421;-87
2023/04/21 01:06:32;;;;;;;26.33;11.93;;;8.20;99.90;;;;;;5039079;28;20117;-86
2023/04/21 01:08:59;;;;;;;20.52;11.48;;;8.20;99.90;;;;;;5059355;28;20047;-88
2023/04/21 01:11:25;;;;;;;17.98;11.05;;;8.20;99.90;;;;;;5072072;28;20106;-88
2023/04/21 01:13:54;;;;;;;17.85;10.75;;;8.60;99.90;;;;;;5072912;28;20489;-87
2023/04/21 01:16:28;;;;;;;19.27;11.57;;;8.30;99.90;;;;;;5068273;28;20678;-87
2023/04/21 01:18:54;;;;;;;18.10;10.45;;;8.60;99.90;;;;;;5081241;28;20109;-88
2023/04/21 01:21:20;;;;;;;19.45;11.10;;;8.20;99.90;;;;;;5052975;28;20047;-86
2023/04/21 01:23:49;;;;;;;20.40;11.10;;;8.20;99.90;;;;;;5064160;28;20055;-87
2023/04/21 01:26:22;;;;;;;18.83;10.88;;;8.30;99.90;;;;;;5073805;28;20040;-88
2023/04/21 01:28:48;;;;;;;23.73;10.55;;;8.50;99.90;;;;;;5057776;28;20074;-87
2023/04/21 01:31:17;;;;;;;21.42;11.13;;;8.40;99.90;;;;;;5059697;28;20125;-87
2023/04/21 01:33:46;;;;;;;21.95;11.07;;;7.50;99.90;;;;;;5058903;28;20044;-86
2023/04/21 01:36:17;;;;;;;24.27;12.10;;;8.60;99.90;;;;;;5059283;28;20109;-87
2023/04/21 01:38:46;;;;;;;20.20;11.50;;;8.30;99.90;;;;;;5066987;28;20043;-88
2023/04/21 01:41:12;;;;;;;22.58;11.50;;;8.20;99.90;;;;;;5057965;28;20078;-90
2023/04/21 01:43:38;;;;;;;18.02;10.65;;;8.50;99.90;;;;;;5057510;28;20040;-87
2023/04/21 01:46:05;;;;;;;19.85;10.77;;;8.20;99.90;;;;;;5074564;28;20164;-90
2023/04/21 01:48:31;;;;;;;19.67;11.82;;;7.60;99.90;;;;;;5050025;28;20048;-87
2023/04/21 01:50:56;;;;;;;19.40;11.05;;;8.20;99.90;;;;;;5073485;28;20560;-87
2023/04/21 01:53:22;;;;;;;23.00;10.90;;;8.20;99.90;;;;;;5047480;28;20056;-87
2023/04/21 01:55:57;;;;;;;20.17;11.02;;;7.90;99.90;;;;;;5070763;28;20535;-87
2023/04/21 01:58:22;;;;;;;19.65;10.90;;;8.50;99.90;;;;;;5053162;28;20121;-88
2023/04/21 02:00:51;;;;;;;20.05;10.65;;;8.10;99.90;;;;;;5066848;28;20493;-86
2023/04/21 02:03:17;;;;;;;18.55;11.55;;;8.00;99.90;;;;;;5052986;28;20048;-87
2023/04/21 02:05:42;;;;;;;21.63;10.90;;;7.80;99.90;;;;;;5069416;28;20051;-87
2023/04/21 02:08:10;;;;;;;22.42;11.55;;;7.70;99.90;;;;;;5056329;28;20075;-89
2023/04/21 02:10:39;;;;;;;22.40;10.85;;;8.00;99.90;;;;;;5051365;28;20060;-87
2023/04/21 02:13:05;;;;;;;16.73;11.23;;;7.90;99.90;;;;;;5041361;28;20080;-87
2023/04/21 02:15:33;;;;;;;19.77;10.20;;;7.80;99.90;;;;;;5053500;28;20081;-86
2023/04/21 02:17:59;;;;;;;19.42;10.70;;;8.00;99.90;;;;;;5074442;28;20076;-86
2023/04/21 02:20:25;;;;;;;19.77;11.20;;;8.10;99.90;;;;;;5071057;28;20096;-86
2023/04/21 02:22:56;;;;;;;20.10;11.40;;;7.90;99.90;;;;;;5073463;28;20130;-87
2023/04/21 02:25:24;;;;;;;18.65;10.98;;;7.50;99.90;;;;;;5046207;28;20044;-86
2023/04/21 02:27:50;;;;;;;16.90;10.77;;;7.80;99.90;;;;;;5058013;28;20130;-86
2023/04/21 02:30:16;;;;;;;18.65;10.73;;;8.10;99.90;;;;;;5073944;28;20181;-86
2023/04/21 02:32:44;;;;;;;24.15;11.27;;;7.80;99.90;;;;;;5048967;28;20072;-87
2023/04/21 02:35:10;;;;;;;22.75;11.20;;;7.90;99.90;;;;;;5056408;28;20131;-86
2023/04/21 02:37:36;;;;;;;19.50;10.77;;;7.80;99.90;;;;;;5065123;28;20123;-86
2023/04/21 02:40:02;;;;;;;17.45;11.27;;;8.40;99.90;;;;;;5059619;28;20668;-86
2023/04/21 02:42:28;;;;;;;23.17;10.73;;;7.80;99.90;;;;;;5057587;28;20393;-86
2023/04/21 02:44:53;;;;;;;19.73;10.52;;;7.50;99.90;;;;;;5076720;28;20040;-86
2023/04/21 02:47:19;;;;;;;20.90;11.43;;;7.90;99.90;;;;;;5062222;28;20106;-86
2023/04/21 02:49:45;;;;;;;20.35;11.25;;;7.70;99.90;;;;;;5050160;28;20047;-87
2023/04/21 02:52:11;;;;;;;17.65;10.07;;;7.80;99.90;;;;;;5075853;28;20051;-86
2023/04/21 02:54:39;;;;;;;20.58;11.15;;;7.70;99.90;;;;;;5050382;28;20131;-85
2023/04/21 02:57:04;;;;;;;21.48;11.65;;;7.50;99.90;;;;;;5057920;28;20044;-87
2023/04/21 02:59:33;;;;;;;21.33;10.90;;;7.50;99.90;;;;;;5060672;28;20040;-86
2023/04/21 03:01:59;;;;;;;18.38;10.57;;;8.20;99.90;;;;;;5060073;28;20109;-87
2023/04/21 03:04:24;;;;;;;24.05;12.15;;;7.60;99.90;;;;;;5059795;28;20052;-88
2023/04/21 03:06:51;;;;;;;24.63;12.15;;;7.40;99.90;;;;;;5075739;28;20052;-88
2023/04/21 03:09:17;;;;;;;20.90;11.20;;;7.70;99.90;;;;;;5058860;28;20043;-90
2023/04/21 03:11:46;;;;;;;21.15;11.88;;;7.50;99.90;;;;;;5046058;28;20048;-87
2023/04/21 03:14:11;;;;;;;24.10;11.55;;;7.60;99.90;;;;;;5059602;28;20062;-86
2023/04/21 03:16:37;;;;;;;21.90;11.57;;;7.70;99.90;;;;;;5041386;28;20131;-87
2023/04/21 03:19:03;;;;;;;20.70;11.30;;;7.60;99.90;;;;;;5056472;28;20044;-86
2023/04/21 03:21:30;;;;;;;24.40;13.27;;;7.60;99.90;;;;;;5059160;28;20049;-87
2023/04/21 03:23:56;;;;;;;23.13;13.38;;;7.50;99.90;;;;;;5076698;28;20051;-87
2023/04/21 03:26:21;;;;;;;19.40;12.50;;;7.90;99.90;;;;;;5052421;28;20044;-87
2023/04/21 03:28:48;;;;;;;21.55;12.75;;;7.50;99.90;;;;;;5075819;28;20047;-87
2023/04/21 03:31:13;;;;;;;20.00;11.48;;;7.70;99.90;;;;;;5041860;28;20041;-86
2023/04/21 03:33:39;;;;;;;22.40;12.27;;;7.40;99.90;;;;;;5052115;28;20051;-87
2023/04/21 03:36:05;;;;;;;19.33;11.57;;;8.00;99.90;;;;;;5067483;28;20040;-87
2023/04/21 03:38:36;;;;;;;20.90;11.82;;;7.80;99.90;;;;;;5045366;28;20071;-86
2023/04/21 03:41:03;;;;;;;25.92;12.32;;;7.60;99.90;;;;;;5044126;28;20098;-89
2023/04/21 03:43:35;;;;;;;20.67;11.98;;;7.50;99.90;;;;;;5076092;28;20137;-87
2023/04/21 03:46:03;;;;;;;20.67;11.65;;;7.60;99.90;;;;;;5050790;28;20170;-86
2023/04/21 03:48:30;;;;;;;22.08;12.00;;;7.50;99.90;;;;;;5045591;28;20098;-86
2023/04/21 03:50:58;;;;;;;20.73;12.02;;;7.90;99.90;;;;;;5056162;28;20556;-88
2023/04/21 03:53:27;;;;;;;24.60;13.10;;;7.50;99.90;;;;;;5059293;28;20064;-88
2023/04/21 03:55:53;;;;;;;20.75;12.20;;;7.20;99.90;;;;;;5062334;28;20040;-87
2023/04/21 03:58:24;;;;;;;23.38;12.70;;;7.40;99.90;;;;;;5084343;28;20744;-86
2023/04/21 04:00:52;;;;;;;22.17;12.05;;;7.10;99.90;;;;;;5075467;28;20040;-87
2023/04/21 04:03:17;;;;;;;25.48;12.70;;;7.60;99.90;;;;;;5058500;28;20051;-88
2023/04/21 04:05:43;;;;;;;22.88;12.00;;;7.50;99.90;;;;;;5069845;28;20039;-87
2023/04/21 04:08:09;;;;;;;20.17;12.05;;;7.30;99.90;;;;;;5076589;28;20485;-88
2023/04/21 04:10:35;;;;;;;18.55;12.32;;;7.40;99.90;;;;;;5078070;28;20063;-87
2023/04/21 04:13:03;;;;;;;24.70;13.23;;;7.40;99.90;;;;;;5057375;28;21271;-87
2023/04/21 04:15:29;;;;;;;23.33;12.88;;;7.60;1.00;;;;;;5067923;28;20151;-87
2023/04/21 04:17:55;;;;;;;21.27;12.35;;;7.70;1.00;;;;;;5084209;28;20135;-88
2023/04/21 04:20:21;;;;;;;20.40;11.90;;;7.60;1.00;;;;;;5063108;28;20508;-87
2023/04/21 04:22:47;;;;;;;19.08;11.75;;;7.30;1.00;;;;;;5059883;28;20118;-87
2023/04/21 04:25:15;;;;;;;23.30;12.38;;;7.60;1.00;;;;;;5069559;28;20130;-88
2023/04/21 04:27:44;;;;;;;22.55;12.45;;;7.40;1.00;;;;;;5067519;28;20052;-87
2023/04/21 04:30:12;;;;;;;24.05;13.27;;;7.30;1.00;;;;;;5063343;28;20130;-88
2023/04/21 04:32:38;;;;;;;21.63;12.20;;;7.30;1.00;;;;;;5059501;28;20058;-88
2023/04/21 04:35:16;;;;;;;24.75;12.23;;;7.10;1.00;;;;;;5072832;28;20074;-88
2023/04/21 04:37:41;;;;;;;22.98;13.15;;;7.00;1.00;;;;;;5076982;28;20055;-86
2023/04/21 04:40:09;;;;;;;21.63;11.80;;;7.40;1.00;;;;;;5069909;28;20044;-87
2023/04/21 04:42:35;;;;;;;22.00;12.20;;;7.40;1.00;;;;;;5071074;28;20044;-87
2023/04/21 04:45:05;;;;;;;19.08;11.90;;;7.60;1.00;;;;;;5072627;28;20036;-87
2023/04/21 04:47:33;;;;;;;20.05;12.63;;;7.70;1.00;;;;;;5048948;28;20052;-88
2023/04/21 04:49:59;;;;;;;25.42;12.13;;;7.30;1.00;;;;;;5061941;28;20052;-87
2023/04/21 04:52:27;;;;;;;21.55;11.43;;;7.40;1.00;;;;;;5075706;28;20079;-87
2023/04/21 04:54:53;;;;;;;21.48;11.23;;;7.50;1.00;;;;;;5037588;28;20056;-88
2023/04/21 04:57:19;;;;;;;25.10;11.82;;;7.70;1.00;;;;;;5071364;28;20044;-89
2023/04/21 04:59:48;;;;;;;19.85;11.15;;;7.50;1.00;;;;;;5073035;28;20040;-86
2023/04/21 05:02:16;;;;;;;19.80;11.18;;;7.80;99.90;;;;;;5058321;28;20036;-89
2023/04/21 05:04:42;;;;;;;24.38;10.90;;;8.00;99.90;;;;;;5043930;28;20055;-88
2023/04/21 05:07:10;;;;;;;20.55;11.88;;;8.30;1.00;;;;;;5039866;28;20039;-86
2023/04/21 05:09:36;;;;;;;18.73;11.40;;;7.40;1.00;;;;;;5056978;28;20079;-89
2023/04/21 05:12:05;;;;;;;18.65;10.77;;;7.60;1.00;;;;;;5053997;28;20098;-89
2023/04/21 05:14:31;;;;;;;20.73;11.32;;;7.70;1.00;;;;;;5073426;28;20036;-85
2023/04/21 05:16:56;;;;;;;19.83;10.38;;;7.80;1.00;;;;;;5053883;28;20397;-87
2023/04/21 05:19:22;;;;;;;19.40;10.90;;;7.70;1.00;;;;;;5067670;28;20140;-87
2023/04/21 05:21:57;;;;;;;18.02;9.80;;;8.20;1.00;;;;;;5056801;28;20086;-87
2023/04/21 05:24:27;;;;;;;18.92;10.52;;;8.20;99.90;;;;;;5055221;28;20578;-87
2023/04/21 05:27:01;;;;;;;19.58;11.70;;;8.40;1.00;;;;;;5064237;28;20590;-87
2023/04/21 05:29:28;;;;;;;19.05;10.52;;;8.10;1.00;;;;;;5053132;28;20043;-88
2023/04/21 05:32:00;;;;;;;15.75;10.15;;;8.20;1.00;;;;;;5058350;28;20499;-89
2023/04/21 05:34:34;;;;;;;17.98;10.05;;;8.50;1.00;;;;;;5060604;28;20055;-88
2023/04/21 05:37:19;;;;;;;20.08;10.73;;;8.60;1.00;;;;;;5050871;28;20051;-88
2023/04/21 05:39:47;;;;;;;16.38;9.98;;;8.40;1.00;;;;;;5050785;28;20048;-89
2023/04/21 05:42:17;;;;;;;19.38;10.05;;;8.50;1.00;;;;;;5049422;28;20132;-89
2023/04/21 05:44:45;;;;;;;15.73;9.07;;;8.60;1.00;;;;;;5051330;28;20066;-89
2023/04/21 05:47:17;;;;;;;15.25;8.70;;;8.70;1.00;;;;;;5050965;28;20044;-88
2023/04/21 05:49:59;;;;;;;;;;;;;;;;;;;;;
2023/04/21 05:52:36;;;;;;;;;;;;;;;;;;;;;
2023/04/21 05:55:04;;;;;;;;;;;9.40;1.00;;;;;;5073375;28;20052;-86
2023/04/21 05:57:36;;;;;;;19.33;9.05;;;9.10;99.90;;;;;;5049835;28;19974;-87
2023/04/21 06:00:02;;;;;;;16.25;8.65;;;9.40;1.00;;;;;;5045139;28;20044;-90
2023/04/21 06:02:29;;;;;;;14.40;8.32;;;8.70;1.00;;;;;;5065685;28;20456;-86
2023/04/21 06:04:55;;;;;;;17.42;8.80;;;9.50;1.00;;;;;;5049364;28;20413;-84
2023/04/21 06:07:21;;;;;;;13.50;8.32;;;9.50;1.00;;;;;;5050857;28;20052;-84
2023/04/21 06:09:51;;;;;;;12.60;8.55;;;9.70;99.90;;;;;;5042987;28;21180;-86
2023/04/21 06:12:17;;;;;;;16.15;8.60;;;9.90;99.90;;;;;;5064502;28;20049;-85
2023/04/21 06:14:42;;;;;;;14.00;8.90;;;10.00;99.90;;;;;;5034438;28;20086;-87
2023/04/21 06:17:08;;;;;;;11.32;7.68;;;10.10;99.90;;;;;;5031762;28;20081;-84
2023/04/21 06:19:39;;;;;;;14.77;7.82;;;10.30;99.90;;;;;;5031173;28;20545;-84
2023/04/21 06:22:05;;;;;;;17.15;8.15;;;10.40;99.90;;;;;;5030866;28;20460;-84
2023/04/21 06:24:31;;;;;;;12.98;7.43;;;10.50;99.90;;;;;;5032037;28;20037;-84
2023/04/21 06:26:57;;;;;;;15.05;8.65;;;10.70;99.90;;;;;;5047742;28;20049;-85
2023/04/21 06:29:23;;;;;;;13.48;7.68;;;10.80;99.90;;;;;;5062656;28;20040;-84
2023/04/21 06:31:48;;;;;;;16.77;7.90;;;10.90;99.90;;;;;;5051089;28;20058;-84
2023/04/21 06:34:15;;;;;;;14.45;8.13;;;11.00;99.90;;;;;;5049736;28;20137;-84
2023/04/21 06:36:40;;;;;;;12.57;7.40;;;10.90;44.30;;;;;;5032319;28;20052;-84
2023/04/21 06:39:06;;;;;;;10.18;7.70;;;10.90;22.40;;;;;;5034632;28;20037;-84
2023/04/21 06:41:32;;;;;;;15.30;8.27;;;10.90;11.40;;;;;;5068648;28;20577;-83
2023/04/21 06:43:57;;;;;;;13.13;7.70;;;11.00;1.00;;;;;;5038849;28;20068;-84
2023/04/21 06:46:23;;;;;;;14.57;7.70;;;10.90;1.00;;;;;;5060329;28;20048;-84
2023/04/21 06:48:49;;;;;;;12.55;7.97;;;11.00;1.00;;;;;;5071275;28;20957;-84
2023/04/21 06:51:14;;;;;;;13.57;7.45;;;11.00;1.00;;;;;;5051650;28;20486;-84
2023/04/21 06:53:40;;;;;;;16.02;7.82;;;11.00;1.00;;;;;;5067424;28;20093;-85
2023/04/21 06:56:06;;;;;;;14.77;7.90;;;11.10;1.00;;;;;;5060143;28;20097;-84
2023/04/21 06:58:32;;;;;;;13.40;7.88;;;11.20;1.00;;;;;;5071605;28;20041;-84
2023/04/21 07:00:57;;;;;;;17.27;7.75;;;11.10;1.00;;;;;;5051058;28;20140;-84
2023/04/21 07:03:23;;;;;;;11.38;7.10;;;11.20;1.00;;;;;;5051632;28;20045;-84
2023/04/21 07:05:49;;;;;;;14.18;7.88;;;11.10;1.00;;;;;;5048759;28;20041;-86
2023/04/21 07:08:15;;;;;;;12.48;8.05;;;11.30;99.90;;;;;;5048488;28;20032;-84
2023/04/21 07:10:41;;;;;;;14.65;7.57;;;11.10;99.90;;;;;;5051619;28;20102;-84
2023/04/21 07:13:07;;;;;;;11.75;7.85;;;11.40;99.90;;;;;;5034067;28;20048;-84
2023/04/21 07:15:33;;;;;;;13.23;8.02;;;11.70;99.90;;;;;;5056432;28;20044;-85
2023/04/21 07:17:59;;;;;;;15.32;7.40;;;12.00;99.90;;;;;;5040679;28;20058;-84
2023/04/21 07:20:24;;;;;;;15.77;7.90;;;12.30;99.90;;;;;;5018172;28;20052;-84
2023/04/21 07:22:50;;;;;;;16.52;8.00;;;12.40;99.90;;;;;;5041977;28;20049;-86
2023/04/21 07:25:16;;;;;;;15.32;7.70;;;12.60;99.90;;;;;;5038170;28;20051;-84
2023/04/21 07:27:42;;;;;;;15.70;8.15;;;12.70;99.90;;;;;;5013609;28;20041;-85
2023/04/21 07:30:08;;;;;;;12.50;7.07;;;12.80;99.90;;;;;;5054483;28;20051;-84
2023/04/21 07:32:33;;;;;;;19.38;8.98;;;12.70;99.90;;;;;;5033453;28;20055;-85
2023/04/21 07:35:00;;;;;;;16.85;8.10;;;12.90;99.90;;;;;;5042949;28;20537;-84
2023/04/21 07:37:26;;;;;;;9.80;7.40;;;13.00;99.90;;;;;;5031020;28;20061;-84
2023/04/21 07:39:52;;;;;;;13.88;8.13;;;13.30;99.90;;;;;;5037504;28;20131;-84
2023/04/21 07:42:18;;;;;;;16.20;7.80;;;13.40;99.90;;;;;;5078312;28;20504;-84
2023/04/21 07:44:43;;;;;;;11.75;7.82;;;13.40;99.90;;;;;;5051273;28;20150;-84
2023/04/21 07:47:09;;;;;;;14.35;8.10;;;13.50;99.90;;;;;;5051674;28;20132;-83
2023/04/21 07:49:35;;;;;;;12.63;7.70;;;13.60;99.90;;;;;;5028815;28;20048;-83
2023/04/21 07:52:01;;;;;;;11.40;7.43;;;13.60;99.90;;;;;;5051990;28;20106;-84
2023/04/21 07:54:26;;;;;;;10.98;7.97;;;13.60;99.90;;;;;;5066461;28;20052;-85
2023/04/21 07:56:52;;;;;;;12.02;7.55;;;13.60;99.90;;;;;;5068148;28;20498;-84
2023/04/21 07:59:18;;;;;;;15.07;7.85;;;13.60;99.90;;;;;;5043124;28;20495;-83
2023/04/21 08:01:44;;;;;;;15.55;7.93;;;13.60;99.90;;;;;;5067528;28;20057;-84
2023/04/21 08:04:09;;;;;;;13.07;7.47;;;13.60;99.90;;;;;;5044031;28;20539;-84
2023/04/21 08:06:35;;;;;;;13.43;7.88;;;14.00;99.90;;;;;;5065576;28;20119;-83
2023/04/21 08:09:01;;;;;;;11.43;7.80;;;14.00;99.90;;;;;;5053160;28;20052;-85
2023/04/21 08:11:27;;;;;;;11.68;7.65;;;13.80;99.90;;;;;;5031686;28;20058;-84
2023/04/21 08:13:53;;;;;;;13.05;7.53;;;13.90;99.90;;;;;;5032764;28;20121;-84
2023/04/21 08:16:19;;;;;;;17.45;8.75;;;13.80;99.90;;;;;;5048238;28;20450;-83
2023/04/21 08:18:45;;;;;;;17.08;9.18;;;13.80;99.90;;;;;;5083752;28;20162;-83
2023/04/21 08:21:11;;;;;;;13.73;8.27;;;13.80;99.90;;;;;;5061800;28;20060;-84
2023/04/21 08:23:36;;;;;;;15.77;8.80;;;13.90;99.90;;;;;;5067067;28;20474;-89
2023/04/21 08:26:05;;;;;;;14.63;7.88;;;13.90;99.90;;;;;;5029158;28;20611;-87
2023/04/21 08:28:31;;;;;;;14.95;8.15;;;14.10;99.90;;;;;;5052725;28;20052;-84
2023/04/21 08:30:57;;;;;;;13.32;8.23;;;13.90;99.90;;;;;;5051724;28;20048;-86
2023/04/21 08:33:22;;;;;;;14.68;8.38;;;14.10;99.90;;;;;;5036726;28;20109;-86
2023/04/21 08:35:48;;;;;;;12.98;7.90;;;14.10;99.90;;;;;;5059467;28;20102;-86
2023/04/21 08:38:14;;;;;;;19.80;7.93;;;14.00;99.90;;;;;;5065226;28;20127;-85
2023/04/21 08:40:40;;;;;;;14.48;7.25;;;14.20;99.90;;;;;;5054008;28;20059;-85
2023/04/21 08:43:07;;;;;;;15.15;7.85;;;14.40;99.90;;;;;;5050476;28;20163;-87
2023/04/21 08:45:34;;;;;;;15.25;7.65;;;14.60;99.90;;;;;;5050963;28;20052;-86
2023/04/21 08:48:03;;;;;;;9.93;7.03;;;14.70;99.90;;;;;;5053438;28;20047;-84
2023/04/21 08:50:31;;;;;;;12.32;7.07;;;14.80;99.90;;;;;;5053997;28;20044;-85
2023/04/21 08:52:57;;;;;;;16.85;8.02;;;15.10;99.90;;;;;;5047292;28;20142;-83
2023/04/21 08:55:29;;;;;;;15.93;8.07;;;15.30;99.90;;;;;;5055967;28;20052;-82
2023/04/21 08:57:55;;;;;;;11.57;7.07;;;15.50;99.90;;;;;;5069150;28;20056;-83
2023/04/21 09:00:21;;;;;;;12.68;7.25;;;15.90;99.90;;;;;;5068043;28;20505;-83
2023/04/21 09:02:55;;;;;;;12.23;7.68;;;15.80;93.50;;;;;;5061107;28;20057;-82
2023/04/21 09:05:27;;;;;;;13.25;6.82;;;16.00;43.40;;;;;;5065047;28;20048;-83
2023/04/21 09:08:07;;;;;;;13.70;7.53;;;16.10;42.20;;;;;;5046769;28;20052;-84
2023/04/21 09:10:33;;;;;;;11.30;7.10;;;16.30;52.60;;;;;;5084812;28;20050;-83
2023/04/21 09:13:05;;;;;;;17.05;7.13;;;16.50;43.20;;;;;;5046110;28;20135;-84
2023/04/21 09:15:38;;;;;;;10.68;7.28;;;17.00;33.60;;;;;;5073347;28;20075;-83
2023/04/21 09:18:17;;;;;;;15.73;6.95;;;17.60;4.20;;;;;;5048519;28;20067;-83
2023/04/21 09:20:44;;;;;;;9.77;6.75;;;18.40;1.00;;;;;;5047890;28;20374;-83
2023/04/21 09:23:10;;;;;;;12.02;7.28;;;19.30;1.00;;;;;;5052016;28;20037;-89
2023/04/21 09:25:41;;;;;;;15.02;7.55;;;19.90;1.00;;;;;;5061712;28;20059;-83
2023/04/21 09:28:08;;;;;;;12.73;6.78;;;20.00;1.00;;;;;;5070368;28;20048;-83
2023/04/21 09:30:35;;;;;;;11.32;6.78;;;20.00;1.00;;;;;;5053615;28;20056;-83
2023/04/21 09:33:01;;;;;;;12.15;6.85;;;19.50;1.00;;;;;;5040896;28;20045;-83
2023/04/21 09:35:31;;;;;;;13.05;6.72;;;19.70;1.00;;;;;;5065582;28;20051;-82
2023/04/21 09:37:57;;;;;;;16.00;7.10;;;19.60;1.00;;;;;;5054738;28;20379;-82
2023/04/21 09:40:22;;;;;;;9.82;6.90;;;19.00;1.00;;;;;;5068751;28;20047;-83
2023/04/21 09:42:49;;;;;;;12.20;7.13;;;18.90;1.00;;;;;;5037288;28;20052;-83
2023/04/21 09:45:16;;;;;;;15.35;7.65;;;18.70;1.00;;;;;;5031721;28;20052;-83
2023/04/21 09:47:42;;;;;;;12.20;6.50;;;18.70;1.00;;;;;;5054236;28;20093;-83
2023/04/21 09:50:11;;;;;;;12.70;6.95;;;18.70;1.00;;;;;;5070763;28;20041;-82
2023/04/21 09:52:43;;;;;;;13.77;6.95;;;18.70;1.00;;;;;;5053088;28;20063;-83
2023/04/21 09:55:12;;;;;;;11.45;6.40;;;18.80;1.00;;;;;;5054024;28;20055;-83
2023/04/21 09:57:41;;;;;;;9.43;6.18;;;18.70;1.00;;;;;;5020856;28;20044;-81
2023/04/21 10:00:11;;;;;;;13.75;6.63;;;18.70;1.00;;;;;;5062177;28;20127;-83
2023/04/21 10:02:46;;;;;;;12.95;7.25;;;18.80;1.00;;;;;;5069932;28;20041;-85
2023/04/21 10:05:12;;;;;;;11.85;7.15;;;18.90;1.00;;;;;;5053842;28;20123;-82
2023/04/21 10:07:38;;;;;;;12.63;6.47;;;19.00;1.00;;;;;;5061656;28;20911;-82
2023/04/21 10:10:08;;;;;;;13.65;7.15;;;18.90;1.00;;;;;;5057543;28;20053;-84
2023/04/21 10:12:34;;;;;;;11.98;7.15;;;19.30;1.00;;;;;;5076255;28;20041;-85
2023/04/21 10:15:03;;;;;;;13.23;7.18;;;19.30;1.00;;;;;;5052883;28;20547;-85
2023/04/21 10:17:35;;;;;;;9.85;6.05;;;19.70;1.00;;;;;;5060829;28;20468;-84
2023/04/21 10:20:06;;;;;;;13.30;6.82;;;20.50;1.00;;;;;;5034273;28;20052;-84
2023/04/21 10:22:33;;;;;;;10.35;6.32;;;20.70;1.00;;;;;;5045458;28;20049;-87
2023/04/21 10:25:02;;;;;;;10.80;6.60;;;20.70;1.00;;;;;;5034465;28;20044;-87
2023/04/21 10:27:30;;;;;;;10.68;6.13;;;21.10;1.00;;;;;;5060634;28;20060;-85
2023/04/21 10:29:58;;;;;;;11.57;6.68;;;22.50;1.00;;;;;;5065564;28;20048;-86
2023/04/21 10:32:40;;;;;;;11.73;6.82;;;23.20;1.00;;;;;;5051956;28;20133;-87
2023/04/21 10:35:10;;;;;;;11.82;6.50;;;24.20;1.00;;;;;;5048563;28;20098;-86
2023/04/21 10:37:36;;;;;;;10.55;6.72;;;25.10;1.00;;;;;;5050173;28;20531;-84
2023/04/21 10:40:07;;;;;;;11.48;6.80;;;25.70;1.00;;;;;;5024455;28;20060;-87
2023/04/21 10:42:35;;;;;;;10.88;6.60;;;26.30;1.00;;;;;;5045544;28;20048;-83
2023/04/21 10:45:06;;;;;;;10.80;6.40;;;26.30;1.00;;;;;;5042547;28;20131;-84
2023/04/21 10:47:45;;;;;;;6.70;5.90;;;26.00;1.00;;;;;;5055190;28;20052;-84
2023/04/21 10:50:12;;;;;;;11.73;6.00;;;26.30;1.00;;;;;;5039420;28;20059;-84
2023/04/21 10:52:38;;;;;;;8.73;6.00;;;26.50;1.00;;;;;;5038683;28;20060;-84
2023/04/21 10:55:06;;;;;;;9.27;5.88;;;27.00;1.00;;;;;;5055379;28;20494;-83
2023/04/21 10:57:33;;;;;;;13.23;6.22;;;27.90;1.00;;;;;;5039006;28;20107;-81
2023/04/21 10:59:59;;;;;;;9.73;6.03;;;28.20;1.00;;;;;;5029349;28;20048;-82
2023/04/21 11:02:26;;;;;;;9.27;5.90;;;28.60;1.00;;;;;;5022058;28;20310;-81
2023/04/21 11:04:55;;;;;;;9.68;5.40;;;29.10;1.00;;;;;;5043245;28;20045;-83
2023/04/21 11:07:25;;;;;;;8.35;5.85;;;28.90;1.00;;;;;;5056606;28;20048;-82
2023/04/21 11:10:05;;;;;;;9.20;5.28;;;29.10;1.00;;;;;;5072376;28;20102;-82
2023/04/21 11:12:33;;;;;;;11.02;5.35;;;29.20;1.00;;;;;;5053830;28;20055;-82
2023/04/21 11:15:02;;;;;;;9.13;5.38;;;29.70;1.00;;;;;;5052492;28;20434;-83
2023/04/21 11:17:27;;;;;;;7.72;5.55;;;30.10;1.00;;;;;;5060519;28;20055;-87
2023/04/21 11:19:55;;;;;;;8.55;4.97;;;30.30;1.00;;;;;;5056686;28;20056;-84
2023/04/21 11:22:23;;;;;;;9.50;4.70;;;30.20;1.00;;;;;;5065437;28;20056;-82
2023/04/21 11:24:52;;;;;;;6.10;4.57;;;30.40;1.00;;;;;;5037323;28;20045;-84
2023/04/21 11:27:18;;;;;;;6.93;4.97;;;30.00;1.00;;;;;;5054849;28;20114;-84
2023/04/21 11:29:47;;;;;;;8.00;4.50;;;29.70;1.00;;;;;;5039294;28;20044;-83
2023/04/21 11:32:14;;;;;;;8.07;4.53;;;28.90;1.00;;;;;;5054989;28;20135;-82
2023/04/21 11:34:40;;;;;;;6.50;4.00;;;28.70;1.00;;;;;;5034239;28;20047;-83
2023/04/21 11:37:08;;;;;;;9.18;5.13;;;27.30;1.00;;;;;;5038019;28;20497;-83
2023/04/21 11:39:33;;;;;;;8.75;4.35;;;26.40;1.00;;;;;;5086742;28;20456;-83
2023/04/21 11:42:00;;;;;;;9.98;4.60;;;25.50;1.00;;;;;;5055195;28;20136;-83
2023/04/21 11:44:37;;;;;;;6.35;4.10;;;25.00;1.00;;;;;;5071498;28;20063;-83
2023/04/21 11:47:12;;;;;;;7.55;4.13;;;25.90;1.00;;;;;;5071202;28;20044;-83
2023/04/21 11:49:45;;;;;;;9.45;3.80;;;25.80;1.00;;;;;;5058904;28;20532;-83
2023/04/21 11:52:11;;;;;;;8.98;3.88;;;25.40;1.00;;;;;;5057223;28;20140;-83
2023/04/21 11:54:38;;;;;;;7.65;3.97;;;25.30;1.00;;;;;;5049134;28;20087;-84
2023/04/21 11:57:05;;;;;;;9.00;3.97;;;26.00;1.00;;;;;;5070759;28;20051;-83
2023/04/21 11:59:31;;;;;;;5.50;3.38;;;27.40;1.00;;;;;;5058396;28;20400;-85
2023/04/21 12:01:57;;;;;;;12.35;3.95;;;27.90;1.00;;;;;;5053366;28;20109;-82
2023/04/21 12:04:24;;;;;;;5.45;3.28;;;28.40;1.00;;;;;;5050447;28;20489;-83
2023/04/21 12:07:01;;;;;;;4.97;3.38;;;28.00;1.00;;;;;;5060608;28;20114;-82
2023/04/21 12:09:28;;;;;;;6.53;3.53;;;27.40;1.00;;;;;;5057659;28;20071;-82
2023/04/21 12:11:56;;;;;;;6.00;3.35;;;27.10;1.00;;;;;;5041383;28;20036;-83
2023/04/21 12:14:23;;;;;;;7.93;3.38;;;26.50;1.00;;;;;;5074551;28;20054;-83
2023/04/21 12:16:54;;;;;;;5.93;3.20;;;26.40;1.00;;;;;;5074160;28;20390;-82
2023/04/21 12:19:40;;;;;;;10.45;3.72;;;25.60;1.00;;;;;;5074422;28;20488;-82
2023/04/21 12:22:10;;;;;;;6.53;3.63;;;25.30;1.00;;;;;;5061654;28;20085;-83
2023/04/21 12:24:36;;;;;;;6.32;4.00;;;24.80;1.00;;;;;;5057136;28;20054;-86
2023/04/21 12:27:02;;;;;;;6.82;3.70;;;24.30;1.00;;;;;;5074334;28;20257;-84
2023/04/21 12:29:28;;;;;;;5.95;3.50;;;23.90;1.00;;;;;;5057329;28;20552;-83
2023/04/21 12:31:54;;;;;;;6.85;4.00;;;24.90;1.00;;;;;;5048979;28;20046;-84
2023/04/21 12:34:20;;;;;;;8.25;3.60;;;25.90;1.00;;;;;;5053098;28;21147;-82
2023/04/21 12:36:45;;;;;;;8.07;3.70;;;25.90;1.00;;;;;;5057094;28;20032;-83
2023/04/21 12:39:12;;;;;;;10.50;3.30;;;26.20;1.00;;;;;;5056679;28;20060;-83
2023/04/21 12:41:38;;;;;;;5.97;3.47;;;25.80;1.00;;;;;;5083539;28;20057;-88
2023/04/21 12:44:05;;;;;;;7.55;4.03;;;25.00;1.00;;;;;;5059902;28;20044;-83
2023/04/21 12:46:31;;;;;;;5.65;3.67;;;24.10;1.00;;;;;;5041402;28;20041;-83